フォルタレザ の空港の天気 - METARとTAF

フォルタレザ/ピント・マーティンズ国際空港 ( SBFZ / FOR ) - ブラジル セアラー州フォルタレザ
飛行場実況気象(Metar)
観測時間06/17 16:00 BRT (06/17 19:00 UTC)
風向・風速東南東 5m/s
視程10km以上
天気現象
全天の4割程度の雲 雲底高度 760m
全天の4割程度の雲 雲底高度 2130m
気温28℃
湿度70%
気圧1013hPa
METARSBFZ 171900Z 11009KT 9999 SCT025 SCT070 28/22 Q1013
過去の天気等 Google飛行場航空写真 Wunderground天気予報

過去48時間のMETAR

飛行場予報(TAF)
発表時間: 6/17 13:00 BRT (6/17 16:00 UTC)
予報対象時間: 17日15時 BRT ~ 18日15時 BRT
風向・風速東南東 5m/s
視程9000m
全天の8割程度の雲 雲底高度 610m
少しの塔状積雲 雲底高度 760m
17日15時 BRT ~ 17日17時 BRT に 確率 30% で一時的に
視程5000m
天気現象しゅう雨
全天の4割程度の雲 雲底高度 300m
全天の8割程度の雲 雲底高度 460m
18日4時 BRT ~ 18日6時 BRT に徐々に
風向・風速南東 3m/s
18日10時 BRT ~ 18日12時 BRT に徐々に
風向・風速東南東 5m/s
TAF SBFZ 171600Z 1718/1818 11010KT 9000 BKN020 FEW025TCU TX29/1718Z T N24/1805Z
PROB30 TEMPO 1718/1720 5000 SHRA SCT010 BKN015
BECMG 1807/1809 14005 KT SCT020
BECMG 1813/1815 11009KT RMK PDU